Time;durP1;ratioP1;P1;durP2;ratioP2;P2;SDS_P1;SDS_P2;PMS_P1;PMS_P2;Temp;Humidity;BMP_temperature;BMP_pressure;BME280_temperature;BME280_humidity;BME280_pressure;Samples;Min_cycle;Max_cycle;Signal;HPM_P1;HPM_P2
2023/11/09 00:00:37;;;;;;;6.90;4.63;;;;;;;3.89;100.00;97727.03;5076674;28;20246;-79
2023/11/09 00:03:03;;;;;;;5.03;4.17;;;;;;;3.85;100.00;97722.84;5076450;28;20690;-79
2023/11/09 00:05:30;;;;;;;6.37;4.57;;;;;;;3.84;100.00;97728.19;5076603;28;20652;-80
2023/11/09 00:07:57;;;;;;;6.57;4.70;;;;;;;3.82;100.00;97720.41;5076475;28;20203;-80
2023/11/09 00:10:23;;;;;;;6.33;4.33;;;;;;;3.84;100.00;97712.50;5077060;28;20213;-80
2023/11/09 00:12:51;;;;;;;5.23;4.27;;;;;;;3.83;100.00;97716.88;5076624;28;20237;-79
2023/11/09 00:15:20;;;;;;;6.77;4.87;;;;;;;3.79;100.00;97704.03;5076104;28;20258;-80
2023/11/09 00:17:46;;;;;;;5.43;4.47;;;;;;;3.74;100.00;97703.41;5075608;28;20225;-80
2023/11/09 00:20:15;;;;;;;6.17;4.47;;;;;;;3.77;100.00;97703.25;5076387;28;20212;-79
2023/11/09 00:22:42;;;;;;;5.40;3.87;;;;;;;3.77;100.00;97698.88;5075841;28;20314;-79
2023/11/09 00:25:08;;;;;;;6.40;4.17;;;;;;;3.75;100.00;97699.88;5075478;28;20683;-79
2023/11/09 00:27:35;;;;;;;6.73;4.43;;;;;;;3.70;100.00;97697.47;5075571;28;20224;-80
2023/11/09 00:30:01;;;;;;;6.43;4.30;;;;;;;3.66;100.00;97690.69;5073988;28;20233;-79
2023/11/09 00:32:29;;;;;;;8.20;4.80;;;;;;;3.63;100.00;97693.47;5075904;28;20235;-80
2023/11/09 00:34:56;;;;;;;9.57;4.90;;;;;;;3.59;100.00;97686.69;5075806;28;20675;-80
2023/11/09 00:37:23;;;;;;;6.53;4.83;;;;;;;3.56;100.00;97688.63;5075436;28;20259;-80
2023/11/09 00:39:49;;;;;;;6.03;4.30;;;;;;;3.54;100.00;97693.91;5075477;28;20225;-80
2023/11/09 00:42:16;;;;;;;5.23;4.20;;;;;;;3.55;100.00;97684.31;5074284;28;20241;-80
2023/11/09 00:44:42;;;;;;;7.27;4.53;;;;;;;3.54;100.00;97688.69;5075698;28;20221;-80
2023/11/09 00:47:09;;;;;;;8.07;4.20;;;;;;;3.58;100.00;97690.25;5075576;28;20749;-80
2023/11/09 00:49:37;;;;;;;5.63;4.53;;;;;;;3.58;100.00;97690.25;5075620;28;20209;-80
2023/11/09 00:52:03;;;;;;;6.33;4.07;;;;;;;3.63;100.00;97695.22;5075787;28;20236;-80
2023/11/09 00:54:30;;;;;;;6.57;4.40;;;;;;;3.62;100.00;97690.94;5075528;28;20313;-80
2023/11/09 00:56:56;;;;;;;6.10;4.20;;;;;;;3.63;100.00;97687.41;5075561;28;20232;-80
2023/11/09 00:59:23;;;;;;;4.80;3.87;;;;;;;3.60;100.00;97688.38;5075477;28;20214;-81
2023/11/09 01:01:49;;;;;;;4.57;3.80;;;;;;;3.59;100.00;97681.47;5074433;28;20251;-80
2023/11/09 01:04:17;;;;;;;5.50;4.07;;;;;;;3.59;100.00;97678.88;5074842;28;20232;-80
2023/11/09 01:06:44;;;;;;;5.90;4.10;;;;;;;3.63;100.00;97685.66;5075145;28;20208;-80
2023/11/09 01:09:11;;;;;;;4.73;3.67;;;;;;;3.63;100.00;97677.81;5074823;28;20228;-80
2023/11/09 01:11:38;;;;;;;6.10;4.07;;;;;;;3.70;100.00;97668.75;5074515;28;20679;-80
2023/11/09 01:14:05;;;;;;;4.43;3.83;;;;;;;3.74;100.00;97670.25;5074509;28;20239;-80
2023/11/09 01:16:31;;;;;;;6.93;3.87;;;;;;;3.77;100.00;97666.66;5074583;28;20235;-80
2023/11/09 01:18:58;;;;;;;4.83;3.30;;;;;;;3.75;100.00;97673.72;5074520;28;20210;-80
2023/11/09 01:21:24;;;;;;;4.17;3.67;;;;;;;3.75;100.00;97666.75;5075126;28;20231;-80
2023/11/09 01:23:52;;;;;;;5.53;3.27;;;;;;;3.80;100.00;97663.91;5075128;28;20209;-80
2023/11/09 01:26:19;;;;;;;5.47;3.67;;;;;;;3.74;100.00;97658.97;5077122;28;20244;-80
2023/11/09 01:28:46;;;;;;;6.20;4.03;;;;;;;3.72;100.00;97650.38;5076143;28;20207;-80
2023/11/09 01:31:12;;;;;;;4.80;3.93;;;;;;;3.71;100.00;97652.13;5073506;28;20237;-80
2023/11/09 01:33:39;;;;;;;5.20;3.57;;;;;;;3.62;100.00;97644.72;5073307;28;20245;-80
2023/11/09 01:36:05;;;;;;;4.57;3.93;;;;;;;3.57;100.00;97643.28;5073556;28;20206;-80
2023/11/09 01:38:32;;;;;;;5.50;4.37;;;;;;;3.60;100.00;97638.75;5073626;28;20223;-80
2023/11/09 01:41:05;;;;;;;6.10;4.00;;;;;;;3.65;100.00;97639.38;5074688;28;20233;-80
2023/11/09 01:43:32;;;;;;;5.43;4.30;;;;;;;3.67;100.00;97634.91;5074035;28;20223;-80
2023/11/09 01:45:59;;;;;;;6.60;4.23;;;;;;;3.71;100.00;97620.78;5074190;28;20248;-80
2023/11/09 01:48:25;;;;;;;7.40;4.23;;;;;;;3.71;100.00;97628.63;5077527;28;20205;-80
2023/11/09 01:50:52;;;;;;;8.27;4.63;;;;;;;3.67;100.00;97611.38;5078419;28;20664;-80
2023/11/09 01:53:20;;;;;;;7.90;4.87;;;;;;;3.64;100.00;97616.78;5077925;28;20225;-80
2023/11/09 01:55:47;;;;;;;8.73;4.87;;;;;;;3.69;100.00;97620.00;5077776;28;20232;-80
2023/11/09 01:58:15;;;;;;;9.07;5.40;;;;;;;3.66;100.00;97611.50;5077430;28;20233;-80
2023/11/09 02:00:43;;;;;;;7.57;4.73;;;;;;;3.67;100.00;97603.53;5088589;28;20225;-80
2023/11/09 02:03:10;;;;;;;6.60;4.63;;;;;;;3.66;100.00;97604.47;5099824;28;20326;-79
2023/11/09 02:05:38;;;;;;;8.63;5.43;;;;;;;3.66;100.00;97598.41;5078727;28;20220;-80
2023/11/09 02:08:05;;;;;;;7.03;4.73;;;;;;;3.71;100.00;97602.47;5078037;28;20206;-80
2023/11/09 02:10:33;;;;;;;8.27;4.97;;;;;;;3.86;100.00;97596.47;5077627;28;20217;-80
2023/11/09 02:13:00;;;;;;;8.73;5.40;;;;;;;3.87;100.00;97595.56;5077561;28;20213;-80
2023/11/09 02:15:28;;;;;;;7.37;4.60;;;;;;;3.91;100.00;97589.22;5093526;28;20202;-80
2023/11/09 02:17:56;;;;;;;7.73;4.40;;;;;;;3.85;100.00;97589.56;5097948;28;20226;-80
2023/11/09 02:20:23;;;;;;;6.67;4.37;;;;;;;3.87;100.00;97581.63;5100092;28;20198;-80
2023/11/09 02:22:53;;;;;;;6.40;4.67;;;;;;;3.86;100.00;97575.56;5099741;28;20230;-80
2023/11/09 02:25:21;;;;;;;6.57;4.67;;;;;;;3.87;100.00;97577.28;5100063;28;20204;-80
2023/11/09 02:27:47;;;;;;;6.77;4.40;;;;;;;3.81;100.00;97577.59;5099943;28;20189;-80
2023/11/09 02:30:14;;;;;;;6.40;4.23;;;;;;;3.81;100.00;97572.34;5100138;28;20213;-80
2023/11/09 02:32:40;;;;;;;6.23;4.23;;;;;;;3.78;100.00;97567.28;5099629;28;20214;-80
2023/11/09 02:35:08;;;;;;;7.70;4.90;;;;;;;3.76;100.00;97558.66;5099961;28;20194;-80
2023/11/09 02:37:35;;;;;;;6.70;5.07;;;;;;;3.77;100.00;97565.59;5100058;28;20242;-81
2023/11/09 02:40:02;;;;;;;8.20;4.77;;;;;;;3.77;100.00;97562.97;5100019;28;20265;-80
2023/11/09 02:42:30;;;;;;;6.17;4.37;;;;;;;3.71;100.00;97555.44;5099756;28;20215;-80
2023/11/09 02:44:57;;;;;;;5.47;4.30;;;;;;;3.68;100.00;97552.97;5097470;28;20195;-80
2023/11/09 02:47:23;;;;;;;7.00;4.63;;;;;;;3.68;100.00;97547.75;5099975;28;20193;-79
2023/11/09 02:49:49;;;;;;;7.77;4.67;;;;;;;3.68;100.00;97545.13;5099878;28;20193;-79
2023/11/09 02:52:16;;;;;;;7.23;4.80;;;;;;;3.67;100.00;97538.22;5099747;28;20213;-79
2023/11/09 02:54:43;;;;;;;7.13;4.97;;;;;;;3.63;100.00;97546.31;5099654;28;20185;-79
2023/11/09 02:57:11;;;;;;;7.00;4.50;;;;;;;3.64;100.00;97527.09;5099465;28;20252;-79
2023/11/09 02:59:39;;;;;;;8.60;4.90;;;;;;;3.69;100.00;97520.72;5098841;28;20189;-80
2023/11/09 03:02:06;;;;;;;5.53;4.47;;;;;;;3.73;100.00;97522.22;5099201;28;20437;-79
2023/11/09 03:04:33;;;;;;;9.03;4.60;;;;;;;3.67;100.00;97516.50;5099592;28;20205;-79
2023/11/09 03:06:59;;;;;;;8.67;4.97;;;;;;;3.66;100.00;97520.84;5099557;28;20227;-79
2023/11/09 03:09:26;;;;;;;9.13;4.27;;;;;;;3.70;100.00;97532.00;5099489;28;20224;-79
2023/11/09 03:11:53;;;;;;;6.13;3.77;;;;;;;3.67;100.00;97530.38;5098537;28;20253;-79
2023/11/09 03:14:20;;;;;;;5.57;4.10;;;;;;;3.67;100.00;97538.22;5096290;28;20220;-80
2023/11/09 03:16:47;;;;;;;5.07;4.00;;;;;;;3.69;100.00;97536.41;5099353;28;20213;-80
2023/11/09 03:19:14;;;;;;;6.77;3.67;;;;;;;3.69;100.00;97532.94;5099442;28;20191;-80
2023/11/09 03:21:40;;;;;;;4.53;3.40;;;;;;;3.66;100.00;97531.31;5099331;28;20221;-80
2023/11/09 03:24:07;;;;;;;6.33;4.17;;;;;;;3.70;100.00;97524.16;5099187;28;20188;-80
2023/11/09 03:26:36;;;;;;;5.27;3.80;;;;;;;3.72;100.00;97520.53;5099281;28;20205;-80
2023/11/09 03:29:03;;;;;;;7.97;4.10;;;;;;;3.70;100.00;97522.41;5098784;28;20194;-81
2023/11/09 03:31:29;;;;;;;4.53;3.40;;;;;;;3.69;100.00;97518.09;5098993;28;20222;-79
2023/11/09 03:33:57;;;;;;;5.97;3.60;;;;;;;3.64;100.00;97509.66;5098933;28;20186;-79
2023/11/09 03:36:24;;;;;;;5.77;3.90;;;;;;;3.67;100.00;97506.03;5099092;28;20204;-78
2023/11/09 03:38:51;;;;;;;6.93;4.30;;;;;;;3.69;100.00;97507.66;5098969;28;20216;-79
2023/11/09 03:41:19;;;;;;;5.73;3.60;;;;;;;3.69;100.00;97507.66;5097542;28;20236;-80
2023/11/09 03:43:45;;;;;;;5.67;3.70;;;;;;;3.65;100.00;97502.63;5093131;28;20206;-79
2023/11/09 03:46:13;;;;;;;5.17;3.67;;;;;;;3.62;100.00;97503.63;5090736;28;20214;-79
2023/11/09 03:48:40;;;;;;;3.80;3.27;;;;;;;3.59;100.00;97493.38;5078446;28;20214;-79
2023/11/09 03:51:07;;;;;;;5.10;3.43;;;;;;;3.59;100.00;97497.72;5073261;28;20240;-79
2023/11/09 03:53:34;;;;;;;4.43;3.23;;;;;;;3.57;100.00;97487.38;5073343;28;20232;-79
2023/11/09 03:56:01;;;;;;;4.27;3.17;;;;;;;3.55;100.00;97488.38;5073416;28;20331;-79
2023/11/09 03:58:27;;;;;;;5.40;4.03;;;;;;;3.51;100.00;97482.47;5073469;28;20582;-79
2023/11/09 04:00:54;;;;;;;4.67;3.80;;;;;;;3.49;100.00;97481.69;5073514;28;20239;-79
2023/11/09 04:03:20;;;;;;;5.30;3.63;;;;;;;3.53;100.00;97480.63;5072875;28;20228;-79
2023/11/09 04:05:47;;;;;;;5.60;3.37;;;;;;;3.47;100.00;97477.47;5074074;28;20218;-79
2023/11/09 04:08:14;;;;;;;6.47;3.83;;;;;;;3.36;100.00;97472.81;5073842;28;20210;-81
2023/11/09 04:10:41;;;;;;;6.13;3.73;;;;;;;3.37;100.00;97479.72;5073099;28;20217;-80
2023/11/09 04:13:08;;;;;;;5.63;3.67;;;;;;;3.28;100.00;97472.34;5072677;28;20304;-80
2023/11/09 04:15:35;;;;;;;3.73;3.20;;;;;;;3.28;100.00;97469.75;5073733;28;20220;-80
2023/11/09 04:18:02;;;;;;;5.17;3.50;;;;;;;3.28;100.00;97464.53;5072680;28;20231;-80
2023/11/09 04:20:28;;;;;;;7.67;3.87;;;;;;;3.29;100.00;97466.22;5089796;28;20189;-80
2023/11/09 04:22:55;;;;;;;4.77;3.80;;;;;;;3.31;100.00;97472.19;5096489;28;20220;-81
2023/11/09 04:25:24;;;;;;;4.27;3.47;;;;;;;3.29;100.00;97463.59;5073874;28;20751;-79
2023/11/09 04:27:51;;;;;;;5.63;3.83;;;;;;;3.31;100.00;97460.91;5073097;28;20216;-79
2023/11/09 04:30:20;;;;;;;6.93;4.13;;;;;;;3.33;100.00;97454.69;5072808;28;20311;-79
2023/11/09 04:32:47;;;;;;;6.70;4.13;;;;;;;3.31;100.00;97456.50;5073010;28;20237;-79
2023/11/09 04:35:16;;;;;;;5.67;3.80;;;;;;;3.28;100.00;97454.06;5073219;28;20289;-80
2023/11/09 04:37:44;;;;;;;6.13;3.47;;;;;;;3.36;100.00;97449.28;5077645;28;20229;-79
2023/11/09 04:40:15;;;;;;;6.10;3.90;;;;;;;3.36;100.00;97454.53;5075026;28;20214;-79
2023/11/09 04:42:43;;;;;;;6.43;4.13;;;;;;;3.43;100.00;97466.34;5076961;28;20233;-81
2023/11/09 04:45:11;;;;;;;5.33;4.10;;;;;;;3.48;100.00;97448.66;5075140;28;20213;-80
2023/11/09 04:47:41;;;;;;;4.80;3.57;;;;;;;3.55;100.00;97438.75;5072340;28;20630;-81
2023/11/09 04:50:13;;;;;;;4.47;3.17;;;;;;;3.71;100.00;97440.47;5072140;28;20314;-79
2023/11/09 04:52:44;;;;;;;4.53;3.13;;;;;;;3.76;100.00;97446.31;5072196;28;20283;-80
2023/11/09 04:55:12;;;;;;;4.17;2.93;;;;;;;3.83;100.00;97437.22;5072140;28;20245;-80
2023/11/09 05:08:38;;;;;;;5.77;3.10;;;;;;;3.75;100.00;97413.25;5073969;28;20602;-79
2023/11/09 05:11:06;;;;;;;4.90;2.87;;;;;;;3.71;100.00;97414.34;5074548;28;20291;-79
2023/11/09 05:13:33;;;;;;;4.43;3.10;;;;;;;3.72;100.00;97412.59;5074403;28;20217;-79
2023/11/09 05:16:01;;;;;;;4.97;3.50;;;;;;;3.71;100.00;97424.78;5075056;28;20217;-79
2023/11/09 05:18:28;;;;;;;5.50;3.43;;;;;;;3.72;100.00;97416.03;5074778;28;20230;-80
2023/11/09 05:20:55;;;;;;;7.23;3.60;;;;;;;3.78;100.00;97407.84;5074299;28;20269;-79
2023/11/09 05:23:21;;;;;;;5.53;3.30;;;;;;;3.88;100.00;97403.81;5071768;28;20213;-80
2023/11/09 05:25:50;;;;;;;3.97;2.90;;;;;;;3.90;100.00;97407.19;5073593;28;20229;-79
2023/11/09 05:28:18;;;;;;;5.27;3.13;;;;;;;3.90;100.00;97404.56;5074340;28;20202;-80
2023/11/09 05:30:45;;;;;;;4.23;3.00;;;;;;;3.95;100.00;97399.94;5071968;28;20224;-80
2023/11/09 05:33:14;;;;;;;5.03;3.30;;;;;;;3.93;100.00;97399.19;5073046;28;20285;-79
2023/11/09 05:35:42;;;;;;;6.63;3.40;;;;;;;3.92;100.00;97407.94;5072392;28;20207;-79
2023/11/09 05:38:10;;;;;;;3.60;2.93;;;;;;;3.98;100.00;97401.56;5072341;28;20237;-79
2023/11/09 05:40:36;;;;;;;6.90;3.70;;;;;;;3.98;100.00;97397.16;5071708;28;20239;-78
2023/11/09 05:43:03;;;;;;;4.40;3.30;;;;;;;4.03;100.00;97402.16;5071959;28;20216;-79
2023/11/09 05:45:29;;;;;;;3.87;3.03;;;;;;;4.02;100.00;97388.22;5072476;28;20226;-79
2023/11/09 05:47:57;;;;;;;4.00;3.30;;;;;;;4.05;100.00;97400.28;5072537;28;20302;-80
2023/11/09 05:50:25;;;;;;;3.93;2.83;;;;;;;4.08;100.00;97393.13;5072122;28;20267;-79
2023/11/09 05:52:52;;;;;;;5.63;2.73;;;;;;;4.08;100.00;97389.66;5072369;28;20245;-79
2023/11/09 05:55:18;;;;;;;4.47;2.90;;;;;;;4.13;100.00;97391.09;5072370;28;20217;-80
2023/11/09 05:57:45;;;;;;;3.40;2.57;;;;;;;4.18;100.00;97386.47;5072670;28;20233;-79
2023/11/09 06:00:14;;;;;;;4.47;2.53;;;;;;;4.26;100.00;97393.84;5073046;28;20476;-79
2023/11/09 06:02:40;;;;;;;5.73;2.57;;;;;;;4.35;100.00;97391.56;5072866;28;20256;-79
2023/11/09 06:05:07;;;;;;;5.50;2.73;;;;;;;4.46;100.00;97396.22;5073370;28;20210;-80
2023/11/09 06:07:35;;;;;;;4.30;2.63;;;;;;;4.52;100.00;97388.84;5073788;28;20205;-80
2023/11/09 06:10:03;;;;;;;5.83;3.27;;;;;;;4.58;100.00;97387.66;5073177;28;20214;-82
2023/11/09 06:12:29;;;;;;;4.27;3.17;;;;;;;4.63;100.00;97386.47;5074095;28;20257;-79
2023/11/09 06:14:56;;;;;;;4.80;2.87;;;;;;;4.68;100.00;97378.34;5072847;28;20210;-80
2023/11/09 06:17:23;;;;;;;2.97;2.47;;;;;;;4.71;100.00;97384.22;5073054;28;20215;-80
2023/11/09 06:19:49;;;;;;;4.53;2.67;;;;;;;4.77;100.00;97381.25;5072423;28;20285;-80
2023/11/09 06:22:17;;;;;;;4.10;2.40;;;;;;;4.83;100.00;97385.31;5071602;28;20231;-80
2023/11/09 06:24:45;;;;;;;4.77;2.53;;;;;;;4.87;100.00;97390.28;5071486;28;20213;-80
2023/11/09 06:27:11;;;;;;;3.30;2.57;;;;;;;4.90;100.00;97384.84;5071837;28;20216;-80
2023/11/09 06:29:38;;;;;;;4.30;2.63;;;;;;;4.88;100.00;97391.97;5072150;28;20210;-80
2023/11/09 06:32:05;;;;;;;4.17;2.53;;;;;;;4.89;100.00;97388.41;5071835;28;20721;-80
2023/11/09 06:34:31;;;;;;;3.50;2.47;;;;;;;4.91;100.00;97389.19;5073286;28;20217;-80
2023/11/09 06:36:58;;;;;;;4.43;2.60;;;;;;;4.93;100.00;97382.06;5075434;28;20325;-80
2023/11/09 06:39:25;;;;;;;3.53;2.57;;;;;;;4.95;100.00;97382.81;5075635;28;20603;-80
2023/11/09 06:41:53;;;;;;;4.63;2.37;;;;;;;4.92;100.00;97385.63;5075602;28;20260;-80
2023/11/09 06:44:19;;;;;;;4.00;2.60;;;;;;;4.91;100.00;97386.56;5076451;28;20215;-80
2023/11/09 06:46:48;;;;;;;2.97;2.47;;;;;;;4.90;100.00;97389.25;5076125;28;20212;-80
2023/11/09 06:49:16;;;;;;;3.50;2.40;;;;;;;4.89;100.00;97383.16;5077458;28;20311;-80
2023/11/09 06:51:42;;;;;;;3.40;2.80;;;;;;;4.90;100.00;97384.84;5078603;28;20241;-81
2023/11/09 06:54:09;;;;;;;3.70;2.93;;;;;;;4.93;100.00;97379.44;5078231;28;20234;-81
2023/11/09 06:56:37;;;;;;;6.37;3.00;;;;;;;4.99;100.00;97389.56;5078193;28;20206;-81
2023/11/09 06:59:06;;;;;;;6.57;2.90;;;;;;;5.04;100.00;97378.81;5077968;28;20253;-81
2023/11/09 07:01:34;;;;;;;5.37;3.17;;;;;;;5.15;100.00;97373.78;5078311;28;20314;-81
2023/11/09 07:04:01;;;;;;;5.23;3.17;;;;;;;5.24;100.00;97379.31;5078879;28;20266;-81
2023/11/09 07:06:28;;;;;;;4.93;3.33;;;;;;;5.28;100.00;97380.81;5078931;28;20216;-81
2023/11/09 07:08:55;;;;;;;4.40;3.30;;;;;;;5.35;100.00;97376.91;5078196;28;20203;-81
2023/11/09 07:11:21;;;;;;;5.07;3.17;;;;;;;5.48;100.00;97383.06;5078729;28;20241;-81
2023/11/09 07:13:48;;;;;;;5.63;2.97;;;;;;;5.56;100.00;97386.06;5078697;28;20219;-81
2023/11/09 07:16:16;;;;;;;4.70;3.23;;;;;;;5.68;100.00;97374.81;5078051;28;20218;-81
2023/11/09 07:18:43;;;;;;;8.03;3.10;;;;;;;5.83;100.00;97368.69;5077772;28;20718;-82
2023/11/09 07:21:10;;;;;;;4.40;2.80;;;;;;;5.97;100.00;97371.28;5077303;28;20322;-79
2023/11/09 07:23:37;;;;;;;4.77;2.87;;;;;;;6.01;100.00;97370.16;5074577;28;20208;-80
2023/11/09 07:26:04;;;;;;;4.67;3.00;;;;;;;6.11;100.00;97365.97;5074392;28;20203;-80
2023/11/09 07:28:31;;;;;;;3.97;2.60;;;;;;;6.16;100.00;97366.53;5074371;28;20203;-79
2023/11/09 07:31:00;;;;;;;4.23;2.60;;;;;;;6.21;100.00;97364.47;5074456;28;20236;-78
2023/11/09 07:33:28;;;;;;;6.57;2.80;;;;;;;6.30;100.00;97379.59;5075787;28;20687;-79
2023/11/09 07:35:56;;;;;;;3.40;2.70;;;;;;;6.34;100.00;97375.84;5078091;28;20240;-80
2023/11/09 07:38:22;;;;;;;4.13;2.53;;;;;;;6.45;100.00;97376.00;5078011;28;20237;-80
2023/11/09 07:40:49;;;;;;;3.63;2.33;;;;;;;6.55;100.00;97374.50;5078513;28;20217;-80
2023/11/09 07:43:16;;;;;;;5.67;2.43;;;;;;;6.61;100.00;97381.09;5078740;28;20204;-80
2023/11/09 07:45:42;;;;;;;2.57;1.97;;;;;;;6.74;100.00;97385.47;5078275;28;20212;-79
2023/11/09 07:48:09;;;;;;;3.33;1.97;;;;;;;6.94;100.00;97377.09;5078627;28;20200;-79
2023/11/09 07:50:38;;;;;;;1.80;1.33;;;;;;;7.10;97.77;97374.28;5078520;28;20219;-80
2023/11/09 07:53:05;;;;;;;1.40;1.30;;;;;;;7.29;95.30;97370.31;5076872;28;20204;-80
2023/11/09 07:55:32;;;;;;;2.00;1.40;;;;;;;7.46;93.36;97362.94;5075745;28;20519;-80
2023/11/09 07:58:02;;;;;;;1.60;1.30;;;;;;;7.63;92.93;97351.25;5076577;28;20208;-82
2023/11/09 08:00:29;;;;;;;2.28;1.40;;;;;;;7.70;94.12;97357.75;5076546;28;20422;-81
2023/11/09 08:02:55;;;;;;;1.27;1.17;;;;;;;7.83;94.93;97363.88;5077504;28;20235;-79
2023/11/09 08:05:24;;;;;;;2.53;1.43;;;;;;;7.88;94.58;97373.13;5078064;28;20203;-80
2023/11/09 08:07:53;;;;;;;2.30;1.20;;;;;;;7.96;94.22;97362.06;5080748;28;20211;-79
2023/11/09 08:10:20;;;;;;;3.90;1.30;;;;;;;7.98;93.73;97368.03;5078190;28;20663;-79
2023/11/09 08:12:47;;;;;;;2.43;1.40;;;;;;;8.05;93.44;97364.88;5077384;28;20231;-79
2023/11/09 08:15:18;;;;;;;1.37;1.10;;;;;;;8.14;93.10;97363.38;5078314;28;20208;-82
2023/11/09 08:17:45;;;;;;;1.23;1.13;;;;;;;8.17;93.13;97363.13;5077931;28;20216;-79
2023/11/09 08:20:14;;;;;;;1.17;0.90;;;;;;;8.23;92.61;97373.25;5079197;28;20609;-80
2023/11/09 08:22:42;;;;;;;1.17;0.90;;;;;;;8.27;92.58;97353.69;5081695;28;20229;-80
2023/11/09 08:25:10;;;;;;;0.90;0.90;;;;;;;8.38;90.86;97351.94;5082365;28;20258;-80
2023/11/09 08:27:40;;;;;;;1.30;1.10;;;;;;;8.44;90.99;97353.31;5081049;28;20232;-80
2023/11/09 08:30:09;;;;;;;1.73;0.90;;;;;;;8.46;90.67;97361.91;5071747;28;20614;-79
2023/11/09 08:32:36;;;;;;;1.20;1.00;;;;;;;8.59;89.77;97365.34;5059255;28;20257;-80
2023/11/09 08:35:09;;;;;;;1.20;1.10;;;;;;;8.66;88.38;97353.38;5058539;28;20210;-80
2023/11/09 08:37:35;;;;;;;1.53;0.90;;;;;;;8.69;87.97;97361.09;5058166;28;20274;-80
2023/11/09 08:40:02;;;;;;;1.13;1.03;;;;;;;8.77;87.34;97359.56;5076291;28;20234;-80
2023/11/09 08:42:33;;;;;;;2.77;1.20;;;;;;;8.80;87.59;97369.00;5078952;28;20291;-80
2023/11/09 08:45:00;;;;;;;1.90;1.20;;;;;;;8.81;87.38;97365.44;5078914;28;20199;-80
2023/11/09 08:47:27;;;;;;;1.20;1.00;;;;;;;8.91;84.92;97340.06;5078707;28;20201;-80
2023/11/09 08:49:53;;;;;;;1.50;1.00;;;;;;;8.95;85.03;97346.81;5078589;28;20203;-80
2023/11/09 08:52:23;;;;;;;1.83;1.10;;;;;;;9.00;84.01;97348.13;5078333;28;20230;-80
2023/11/09 08:54:51;;;;;;;4.03;1.30;;;;;;;9.05;81.98;97342.53;5077881;28;20210;-80
2023/11/09 08:57:18;;;;;;;1.80;1.00;;;;;;;9.12;80.58;97336.66;5076792;28;20700;-80
2023/11/09 08:59:47;;;;;;;1.97;1.10;;;;;;;9.12;81.12;97343.75;5077539;28;20230;-80
2023/11/09 09:02:15;;;;;;;1.43;1.30;;;;;;;9.19;80.39;97332.59;5078255;28;20328;-81
2023/11/09 09:04:42;;;;;;;2.57;1.30;;;;;;;9.24;80.32;97338.34;5079022;28;20634;-81
2023/11/09 09:07:09;;;;;;;1.47;1.37;;;;;;;9.22;80.89;97336.78;5080693;28;20207;-80
2023/11/09 09:09:37;;;;;;;1.57;1.40;;;;;;;9.23;80.00;97325.31;5076037;28;20203;-81
2023/11/09 09:12:05;;;;;;;1.83;1.40;;;;;;;9.30;79.11;97321.25;5072509;28;20283;-81
2023/11/09 09:14:31;;;;;;;1.37;1.27;;;;;;;9.32;78.28;97316.69;5077808;28;20339;-81
2023/11/09 09:16:59;;;;;;;3.17;1.40;;;;;;;9.24;77.84;97312.00;5074744;28;20211;-81
2023/11/09 09:19:25;;;;;;;3.13;1.53;;;;;;;9.27;78.47;97318.84;5067514;28;20231;-81
2023/11/09 09:21:52;;;;;;;2.87;1.60;;;;;;;9.32;78.49;97308.78;5057451;28;20239;-81
2023/11/09 09:24:19;;;;;;;2.37;1.40;;;;;;;9.28;76.90;97308.19;5063320;28;20211;-81
2023/11/09 09:26:46;;;;;;;2.63;1.70;;;;;;;9.31;78.24;97318.47;5065986;28;20207;-82
2023/11/09 09:29:13;;;;;;;1.37;1.27;;;;;;;9.33;78.05;97323.63;5078809;28;20210;-82
2023/11/09 09:31:39;;;;;;;1.63;1.17;;;;;;;9.29;78.67;97316.91;5075227;28;20248;-80
2023/11/09 09:34:09;;;;;;;2.00;1.20;;;;;;;9.21;79.71;97321.94;5064720;28;20587;-80
2023/11/09 09:36:37;;;;;;;2.30;1.50;;;;;;;9.17;79.82;97316.06;5078537;28;20590;-82
2023/11/09 09:39:05;;;;;;;2.30;1.47;;;;;;;9.16;80.09;97313.53;5078624;28;20235;-80
2023/11/09 09:41:40;;;;;;;3.77;1.23;;;;;;;9.17;79.96;97315.25;5079162;28;20239;-79
2023/11/09 09:44:12;;;;;;;1.47;1.30;;;;;;;9.19;80.14;97308.03;5078140;28;20297;-79
2023/11/09 09:46:40;;;;;;;1.93;1.40;;;;;;;9.20;81.14;97320.25;5076861;28;20245;-82
2023/11/09 09:49:09;;;;;;;1.47;1.23;;;;;;;9.28;81.70;97331.06;5078305;28;20323;-80
2023/11/09 09:51:37;;;;;;;2.87;1.60;;;;;;;9.32;81.12;97321.97;5079467;28;20708;-80
2023/11/09 09:54:08;;;;;;;1.87;1.10;;;;;;;9.33;81.28;97310.44;5078062;28;20301;-81
2023/11/09 09:56:38;;;;;;;2.33;1.30;;;;;;;9.40;81.35;97332.75;5075288;28;20293;-81
2023/11/09 09:59:05;;;;;;;2.17;1.33;;;;;;;9.53;79.82;97318.50;5076653;28;20294;-81
2023/11/09 10:01:35;;;;;;;1.73;1.40;;;;;;;9.55;80.65;97327.13;5076640;28;20238;-81
2023/11/09 10:04:04;;;;;;;1.63;1.10;;;;;;;9.61;81.31;97324.00;5077155;28;20213;-81
2023/11/09 10:06:32;;;;;;;2.20;1.30;;;;;;;9.69;79.82;97323.41;5077397;28;20704;-81
2023/11/09 10:08:58;;;;;;;1.23;1.13;;;;;;;9.82;78.86;97318.84;5079913;28;20638;-81
2023/11/09 10:11:26;;;;;;;2.10;1.33;;;;;;;9.96;77.75;97302.75;5081095;28;20753;-81
2023/11/09 10:13:54;;;;;;;1.60;1.27;;;;;;;9.97;78.36;97312.38;5081639;28;20223;-81
2023/11/09 10:16:30;;;;;;;5.90;1.43;;;;;;;10.08;78.31;97310.56;5081435;28;20210;-81
2023/11/09 10:19:01;;;;;;;2.33;1.10;;;;;;;10.17;78.72;97316.94;5080429;28;20230;-82
2023/11/09 10:21:30;;;;;;;1.00;1.00;;;;;;;10.27;79.58;97312.59;5081483;28;20237;-82
2023/11/09 10:24:00;;;;;;;3.63;1.50;;;;;;;10.32;78.96;97302.47;5079202;28;20204;-82
2023/11/09 10:26:39;;;;;;;1.50;1.20;;;;;;;10.43;78.09;97297.16;5080726;28;20208;-82
2023/11/09 10:29:06;;;;;;;1.50;0.90;;;;;;;10.46;77.45;97297.75;5079760;28;20589;-82
2023/11/09 10:31:33;;;;;;;1.90;1.10;;;;;;;10.54;78.10;97315.63;5080428;28;20244;-78
2023/11/09 10:34:00;;;;;;;1.93;1.00;;;;;;;10.61;77.93;97299.16;5077549;28;20205;-85
2023/11/09 10:36:28;;;;;;;1.13;0.90;;;;;;;10.67;77.73;97288.06;5082374;28;20783;-84
2023/11/09 10:38:54;;;;;;;1.57;1.10;;;;;;;10.74;77.52;97285.75;5078046;28;20314;-79
2023/11/09 10:41:26;;;;;;;1.30;1.20;;;;;;;10.77;77.50;97273.09;5077024;28;20334;-81
2023/11/09 10:43:55;;;;;;;1.53;1.10;;;;;;;10.80;77.27;97270.22;5077903;28;20218;-80
2023/11/09 10:46:22;;;;;;;1.00;0.90;;;;;;;10.76;77.69;97270.63;5079080;28;20210;-80
2023/11/09 10:48:52;;;;;;;2.00;1.20;;;;;;;10.83;77.41;97266.50;5079720;28;20317;-82
2023/11/09 10:51:19;;;;;;;1.17;0.97;;;;;;;10.83;78.23;97261.19;5057972;28;20236;-82
2023/11/09 10:53:48;;;;;;;2.00;1.00;;;;;;;10.83;79.71;97267.31;5057842;28;20205;-82
2023/11/09 10:56:17;;;;;;;1.00;0.90;;;;;;;10.90;78.63;97257.06;5057701;28;20244;-79
2023/11/09 10:58:45;;;;;;;1.23;0.90;;;;;;;10.94;79.86;97282.28;5059197;28;20206;-82
2023/11/09 11:01:20;;;;;;;1.90;0.97;;;;;;;10.97;80.39;97284.66;5060502;28;20236;-80
2023/11/09 11:03:54;;;;;;;1.00;0.87;;;;;;;10.98;80.92;97281.03;5062913;28;20203;-81
2023/11/09 11:06:23;;;;;;;2.83;1.23;;;;;;;10.96;81.68;97278.53;5062139;28;20215;-82
2023/11/09 11:08:57;;;;;;;0.97;0.97;;;;;;;10.97;81.50;97284.66;5062770;28;20234;-81
2023/11/09 11:11:25;;;;;;;0.97;0.80;;;;;;;10.97;82.85;97269.66;5062808;28;20238;-80
2023/11/09 11:14:00;;;;;;;1.53;1.00;;;;;;;11.08;81.40;97260.81;5062750;28;20214;-79
2023/11/09 11:16:51;;;;;;;1.10;0.87;;;;;;;11.15;82.43;97256.66;5062675;28;20221;-81
2023/11/09 11:19:47;;;;;;;1.10;0.80;;;;;;;11.17;83.44;97257.38;5062532;28;20293;-81
2023/11/09 11:22:32;;;;;;;0.70;0.60;;;;;;;11.18;84.10;97251.13;5061471;28;20692;-81
2023/11/09 11:25:16;;;;;;;1.33;0.70;;;;;;;11.29;83.63;97245.75;5063945;28;20214;-80
2023/11/09 11:27:50;;;;;;;0.73;0.73;;;;;;;11.40;84.24;97250.94;5064926;28;20212;-80
2023/11/09 11:30:24;;;;;;;1.80;0.90;;;;;;;11.49;83.86;97252.81;5064494;28;20280;-80
2023/11/09 11:32:51;;;;;;;0.77;0.77;;;;;;;11.54;83.44;97242.66;5064414;28;20275;-79
2023/11/09 11:35:30;;;;;;;1.50;0.80;;;;;;;11.67;82.96;97243.31;5064485;28;20226;-80
2023/11/09 11:38:05;;;;;;;0.53;0.53;;;;;;;11.70;83.60;97256.25;5064374;28;20208;-79
2023/11/09 11:40:34;;;;;;;0.60;0.60;;;;;;;11.80;83.18;97251.84;5063479;28;20305;-80
2023/11/09 11:43:02;;;;;;;0.93;0.60;;;;;;;11.86;83.00;97248.66;5061956;28;20212;-82
2023/11/09 11:45:30;;;;;;;0.67;0.60;;;;;;;11.92;80.60;97226.94;5061535;28;20272;-81
2023/11/09 11:48:01;;;;;;;1.40;0.50;;;;;;;11.98;81.57;97234.34;5060395;28;20211;-80